Anchorage/Lake Hood Seaplane Base, AK

7:26 AM AKDT on March 29, 2017 (GMT -0800)
Lake Hood | | Change Station
Active Advisory: Winter Weather Advisory

Elev 72 ft 61.18 °N, 149.97 °W | Updated 16 minutes ago

Light Snow
Light Snow Mist
27 °F
Feels Like 20 °F
N
6
Wind Variable Wind from SSW

Today
High -- | Low -- °F
--% Chance of Precip.
Yesterday
High -- | Low -- °F
Precip. -- in
Pressure 29.52 in
Visibility 1.0 miles
Clouds
Windchill 20 °F
Dew Point 27 °F
Humidity 100%
Rainfall 0.32 in
Snow Depth Not available.
7:31 AM 8:39 PM
Waxing Crescent, 3% visible
SPECI PALH 291510Z 21005KT 1SM -SN BR VV012 M03/M03 A2952 RMK AO2 P0001 T10281028
Pressure 29.52 in
Visibility 1.0 miles
Clouds
Windchill 20 °F
Dew Point 27 °F
Humidity 100%
Rainfall 0.32 in
Snow Depth Not available.
7:31 AM 8:39 PM
Waxing Crescent, 3% visible
SPECI PALH 291510Z 21005KT 1SM -SN BR VV012 M03/M03 A2952 RMK AO2 P0001 T10281028

Get Your Daily Forecast Email!

Thanks for signing up!

Be on the lookout for a verification email in your inbox.

You'll start receiving severe weather alerts in your inbox..

×

10-Day Weather Forecast

Almanac

Astronomy

Mar. 29, 2017 Rise Set
Actual Time
Civil Twilight
Nautical Twilight
Astronomical Twilight
Moon
Length of Visible Light
Length of Day
Tomorrow will be .
, % of the Moon is Illuminated

Today's Extremes

State Highs State Lows

Community

WunderPhotos

Upload Photos

1,962,540 photos uploaded!

WunderBlog® & News

Nearby

Air Quality

  Air Quality AQ Index Pollutant
Not available.

Snow Depth

Station Depth Elevation

Earthquake Activity

City Distance Mag. Time & Date
Minimum magnitude displayed is 2.5.

Earthquake Activity

City Distance Mag. Time & Date
Minimum magnitude displayed is 2.5.

Coastal Water Temperatures

Place Temperature

Stations

Nearby Weather Stations

Station Location Temp. Windchill Dew Point Humidity Wind Precip. Elev Updated Type
                   

Watches & Warnings

Winter Weather Advisory
Issued: 3:28 AM AKDT Mar. 29, 2017 – National Weather Service

... Winter Weather Advisory for snow remains in effect until 10 am
akdt this morning...

* snow... storm total accumulation 4 to 8 inches.

* Timing... snow will continue through this morning. The snow will
change to showers and diminish in intensity by late morning.

* Impacts... travel may be difficult. Visibilities will be
limited in heavy snowfall.

Precautionary/preparedness actions...

A Winter Weather Advisory for snow means that periods of snow
will cause primarily travel difficulties. Be prepared for snow
covered roads and limited visibilities, and use caution while
driving.